Time;durP1;ratioP1;P1;durP2;ratioP2;P2;SDS_P1;SDS_P2;PMS_P1;PMS_P2;Temp;Humidity;BMP_temperature;BMP_pressure;BME280_temperature;BME280_humidity;BME280_pressure;Samples;Min_cycle;Max_cycle;Signal;HPM_P1;HPM_P2
2020/12/29 00:00:23;;;;;;;4.55;2.75;;;0.00;99.90;;;;;;4766203;30;20456;-79
2020/12/29 00:02:54;;;;;;;3.88;2.55;;;0.00;99.90;;;;;;4752217;30;20086;-79
2020/12/29 00:05:25;;;;;;;4.47;2.55;;;0.10;99.90;;;;;;4781017;30;20115;-79
2020/12/29 00:07:57;;;;;;;4.10;2.78;;;0.10;99.90;;;;;;4751883;30;20504;-79
2020/12/29 00:10:28;;;;;;;3.45;2.35;;;0.10;99.90;;;;;;4781217;29;20475;-79
2020/12/29 00:12:54;;;;;;;2.95;2.58;;;0.20;99.90;;;;;;4766133;30;20079;-79
2020/12/29 00:15:25;;;;;;;2.95;2.17;;;0.20;99.90;;;;;;4780721;29;20087;-79
2020/12/29 00:17:57;;;;;;;3.30;2.50;;;0.20;99.90;;;;;;4765814;30;20127;-79
2020/12/29 00:20:28;;;;;;;3.08;2.40;;;0.20;99.90;;;;;;4766082;30;20048;-79
2020/12/29 00:23:00;;;;;;;4.28;2.00;;;0.20;99.90;;;;;;4752124;30;20078;-79
2020/12/29 00:25:31;;;;;;;3.35;2.30;;;0.30;99.90;;;;;;4751243;30;20532;-79
2020/12/29 00:28:02;;;;;;;4.03;2.60;;;0.30;99.90;;;;;;4765968;30;20151;-79
2020/12/29 00:30:33;;;;;;;4.28;2.83;;;0.40;99.90;;;;;;4768027;30;20156;-79
2020/12/29 00:33:13;;;;;;;2.80;2.22;;;0.30;99.90;;;;;;4755122;30;20523;-79
2020/12/29 00:35:45;;;;;;;2.53;2.17;;;0.30;99.90;;;;;;4780015;30;20070;-80
2020/12/29 00:38:11;;;;;;;3.17;2.30;;;0.30;99.90;;;;;;4768228;29;20074;-80
2020/12/29 00:40:42;;;;;;;2.58;2.00;;;0.30;99.90;;;;;;4777492;30;20122;-79
2020/12/29 00:43:13;;;;;;;4.57;2.78;;;0.30;99.90;;;;;;4776447;30;20130;-79
2020/12/29 00:45:45;;;;;;;3.85;2.50;;;0.30;99.90;;;;;;4769268;30;20134;-79
2020/12/29 00:48:16;;;;;;;4.50;2.83;;;0.30;99.90;;;;;;4769267;29;20071;-80
2020/12/29 00:50:47;;;;;;;4.82;2.33;;;0.30;99.90;;;;;;4769634;30;20423;-80
2020/12/29 00:53:14;;;;;;;4.13;2.58;;;0.30;99.90;;;;;;4779701;29;20126;-79
2020/12/29 00:55:52;;;;;;;4.47;2.50;;;0.30;99.90;;;;;;4781010;29;20118;-79
2020/12/29 00:58:24;;;;;;;4.40;2.08;;;0.30;99.90;;;;;;4765447;30;20043;-79
2020/12/29 01:00:56;;;;;;;2.72;1.85;;;0.30;99.90;;;;;;4766742;30;20082;-79
2020/12/29 01:03:27;;;;;;;4.38;2.13;;;0.40;99.90;;;;;;4766068;30;20056;-79
2020/12/29 01:05:53;;;;;;;2.78;2.13;;;0.40;99.90;;;;;;4766224;30;20079;-79
2020/12/29 01:08:21;;;;;;;3.10;1.83;;;0.40;99.90;;;;;;4766051;30;20052;-79
2020/12/29 01:10:55;;;;;;;;;;;0.40;99.90;;;;;;4766468;30;20055;-79
2020/12/29 01:13:40;;;;;;;4.28;2.40;;;0.40;99.90;;;;;;4765941;30;20024;-79
2020/12/29 01:16:13;;;;;;;2.17;1.60;;;0.40;99.90;;;;;;4766280;30;20055;-79
2020/12/29 01:18:48;;;;;;;3.85;2.10;;;0.40;99.90;;;;;;4766179;30;20048;-79
2020/12/29 01:21:20;;;;;;;6.00;1.90;;;0.40;99.90;;;;;;4766710;30;20070;-79
2020/12/29 01:23:51;;;;;;;1.70;1.20;;;0.40;99.90;;;;;;4766772;30;20055;-79
2020/12/29 01:26:26;;;;;;;2.03;1.20;;;0.40;99.90;;;;;;4766549;29;20147;-79
2020/12/29 01:28:57;;;;;;;2.78;1.50;;;0.50;99.90;;;;;;4780228;30;20139;-80
2020/12/29 01:31:30;;;;;;;2.40;1.35;;;0.60;99.90;;;;;;4765922;30;20047;-79
2020/12/29 01:34:01;;;;;;;2.08;1.23;;;0.70;99.90;;;;;;4765865;30;20075;-80
2020/12/29 01:36:33;;;;;;;2.35;1.80;;;0.70;99.90;;;;;;4752040;30;20505;-79
2020/12/29 01:39:04;;;;;;;2.28;1.20;;;0.70;99.90;;;;;;4783401;30;20100;-79
2020/12/29 01:41:35;;;;;;;2.05;1.30;;;0.70;99.90;;;;;;4769204;30;20043;-79
2020/12/29 01:44:20;;;;;;;3.35;2.13;;;0.70;99.90;;;;;;4769693;30;20130;-79
2020/12/29 01:46:52;;;;;;;3.33;2.45;;;0.80;99.90;;;;;;4769251;30;20104;-79
2020/12/29 01:49:24;;;;;;;3.38;1.90;;;0.70;99.90;;;;;;4769495;29;20392;-79
2020/12/29 01:51:55;;;;;;;2.35;1.38;;;0.70;99.90;;;;;;4769661;29;20146;-79
2020/12/29 01:54:27;;;;;;;1.20;0.75;;;0.80;99.90;;;;;;4768787;30;20052;-79
2020/12/29 01:56:58;;;;;;;1.00;0.60;;;0.90;99.90;;;;;;4769235;30;20115;-79
2020/12/29 01:59:29;;;;;;;0.68;0.50;;;1.30;99.90;;;;;;4768530;30;20490;-79
2020/12/29 02:02:01;;;;;;;0.40;0.40;;;1.60;99.90;;;;;;4769350;30;20130;-79
2020/12/29 02:04:33;;;;;;;0.63;0.47;;;1.80;99.90;;;;;;4782658;30;20538;-79
2020/12/29 02:07:04;;;;;;;1.17;0.77;;;2.00;99.90;;;;;;4768530;30;20075;-79
2020/12/29 02:09:36;;;;;;;1.08;0.50;;;2.00;99.90;;;;;;4768257;30;20154;-79
2020/12/29 02:12:21;;;;;;;0.80;0.50;;;2.10;99.90;;;;;;4783206;29;20491;-79
2020/12/29 02:14:54;;;;;;;0.75;0.52;;;2.10;99.90;;;;;;4768293;30;20139;-79
2020/12/29 02:17:26;;;;;;;1.42;0.80;;;2.20;99.90;;;;;;4768497;30;20134;-79
2020/12/29 02:19:57;;;;;;;1.88;0.90;;;2.10;99.90;;;;;;4769203;30;20583;-79
2020/12/29 02:22:25;;;;;;;1.35;0.93;;;2.10;99.90;;;;;;4767845;30;20083;-79
2020/12/29 02:25:03;;;;;;;1.77;1.02;;;2.00;99.90;;;;;;4768023;30;20052;-79
2020/12/29 02:27:44;;;;;;;2.17;1.30;;;1.90;99.90;;;;;;4767465;30;20134;-79
2020/12/29 02:30:18;;;;;;;1.73;1.02;;;1.90;99.90;;;;;;4768112;30;20055;-79
2020/12/29 02:32:49;;;;;;;1.58;1.42;;;1.80;99.90;;;;;;4768293;30;20059;-79
2020/12/29 02:35:20;;;;;;;1.80;1.33;;;1.80;99.90;;;;;;4768209;30;20094;-79
2020/12/29 02:37:51;;;;;;;2.08;1.02;;;1.70;99.90;;;;;;4768609;30;20130;-79
2020/12/29 02:40:23;;;;;;;0.85;0.60;;;1.70;99.90;;;;;;4767896;30;20043;-79
2020/12/29 02:42:54;;;;;;;0.70;0.60;;;1.70;99.90;;;;;;4768375;30;20079;-79
2020/12/29 02:45:25;;;;;;;1.05;0.77;;;1.70;99.90;;;;;;4768532;30;20058;-79
2020/12/29 02:47:56;;;;;;;0.70;0.52;;;1.70;99.90;;;;;;4767487;30;20182;-79
2020/12/29 02:50:31;;;;;;;0.90;0.70;;;1.70;99.90;;;;;;4781859;30;20175;-79
2020/12/29 02:53:02;;;;;;;2.15;0.73;;;1.70;99.90;;;;;;4768664;30;20147;-78
2020/12/29 02:55:34;;;;;;;1.33;0.70;;;1.70;99.90;;;;;;4767766;30;20058;-79
2020/12/29 02:58:00;;;;;;;1.70;1.30;;;1.70;99.90;;;;;;4767411;29;20131;-79
2020/12/29 03:00:31;;;;;;;2.15;0.77;;;1.70;99.90;;;;;;4767966;30;20522;-79
2020/12/29 03:02:57;;;;;;;1.40;0.88;;;1.60;99.90;;;;;;4767875;30;20138;-79
2020/12/29 03:05:28;;;;;;;1.15;0.90;;;1.60;99.90;;;;;;4782146;30;20136;-79
2020/12/29 03:08:00;;;;;;;1.10;1.00;;;1.50;99.90;;;;;;4768520;30;20591;-79
2020/12/29 03:10:31;;;;;;;1.00;0.88;;;1.50;99.90;;;;;;4782718;30;20151;-78
2020/12/29 03:13:02;;;;;;;1.17;1.05;;;1.50;99.90;;;;;;4768419;30;20051;-78
2020/12/29 03:15:34;;;;;;;1.35;0.80;;;1.50;99.90;;;;;;4767780;30;20051;-79
2020/12/29 03:18:05;;;;;;;0.93;0.60;;;1.50;99.90;;;;;;4768088;30;20476;-79
2020/12/29 03:20:36;;;;;;;1.17;0.82;;;1.50;99.90;;;;;;4767390;30;20051;-79
2020/12/29 03:23:07;;;;;;;1.67;0.50;;;1.50;99.90;;;;;;4767393;30;20087;-79
2020/12/29 03:25:38;;;;;;;0.85;0.60;;;1.60;99.90;;;;;;4781771;30;20475;-79
2020/12/29 03:28:10;;;;;;;0.93;0.60;;;1.70;99.90;;;;;;4767058;30;20047;-79
2020/12/29 03:30:41;;;;;;;1.38;0.47;;;1.70;99.90;;;;;;4767059;30;20058;-79
2020/12/29 03:33:12;;;;;;;1.10;0.70;;;1.80;99.90;;;;;;4767853;30;20504;-78
2020/12/29 03:35:43;;;;;;;1.35;0.50;;;1.80;99.90;;;;;;4767084;30;20526;-79
2020/12/29 03:38:10;;;;;;;1.20;0.75;;;1.80;99.90;;;;;;4767011;30;20134;-79
2020/12/29 03:40:41;;;;;;;1.05;0.60;;;1.80;99.90;;;;;;4766943;30;20047;-78
2020/12/29 03:43:15;;;;;;;0.82;0.63;;;1.90;99.90;;;;;;4767179;30;20138;-79
2020/12/29 03:45:48;;;;;;;1.30;0.57;;;1.90;99.90;;;;;;4766908;30;20147;-79
2020/12/29 03:48:21;;;;;;;0.63;0.50;;;1.90;99.90;;;;;;4767407;30;20151;-79
2020/12/29 03:50:53;;;;;;;0.57;0.40;;;1.90;99.90;;;;;;4767829;29;20052;-79
2020/12/29 03:53:24;;;;;;;0.95;0.45;;;2.00;99.90;;;;;;4767509;30;20555;-78
2020/12/29 03:55:55;;;;;;;0.90;0.50;;;2.10;99.90;;;;;;4766848;30;20146;-79
2020/12/29 03:58:27;;;;;;;0.77;0.40;;;2.20;99.90;;;;;;4781348;30;20093;-79
2020/12/29 04:00:58;;;;;;;0.30;0.30;;;2.30;99.90;;;;;;4766888;30;20442;-79
2020/12/29 04:03:29;;;;;;;1.35;0.40;;;2.40;99.90;;;;;;4766767;30;20603;-79
2020/12/29 04:06:00;;;;;;;0.95;0.30;;;2.50;99.90;;;;;;4767429;30;20139;-78
2020/12/29 04:08:31;;;;;;;0.60;0.50;;;2.60;99.50;;;;;;4767158;30;20047;-78
2020/12/29 04:11:03;;;;;;;1.10;0.70;;;2.70;99.00;;;;;;4766836;30;20062;-79
2020/12/29 04:13:34;;;;;;;0.95;0.60;;;2.80;98.90;;;;;;4766642;30;20142;-78
2020/12/29 04:16:06;;;;;;;1.08;0.68;;;2.90;98.10;;;;;;4767318;30;20060;-78
2020/12/29 04:18:38;;;;;;;1.05;0.52;;;3.00;98.30;;;;;;4766043;30;20048;-79
2020/12/29 04:21:11;;;;;;;0.73;0.40;;;3.10;98.00;;;;;;4766252;30;20062;-78
2020/12/29 04:23:43;;;;;;;0.47;0.40;;;3.20;97.70;;;;;;4767040;30;20135;-78
2020/12/29 04:26:15;;;;;;;1.38;0.50;;;3.20;97.90;;;;;;4766391;30;20139;-78
2020/12/29 04:28:41;;;;;;;1.13;0.60;;;3.20;97.30;;;;;;4766002;30;20116;-79
2020/12/29 04:31:13;;;;;;;0.70;0.63;;;3.20;97.60;;;;;;4766350;30;20051;-79
2020/12/29 04:33:44;;;;;;;1.30;0.50;;;3.30;97.70;;;;;;4766021;30;20054;-79
2020/12/29 04:36:16;;;;;;;1.13;0.70;;;3.40;97.00;;;;;;4766238;30;20052;-78
2020/12/29 04:38:47;;;;;;;0.45;0.30;;;3.40;97.40;;;;;;4766187;30;20048;-78
2020/12/29 04:41:18;;;;;;;1.48;0.55;;;3.30;97.60;;;;;;4766112;30;20052;-78
2020/12/29 04:43:55;;;;;;;0.80;0.43;;;3.30;97.50;;;;;;4766934;30;20146;-79
2020/12/29 04:46:26;;;;;;;0.88;0.60;;;3.30;97.80;;;;;;4766164;30;20151;-78
2020/12/29 04:48:59;;;;;;;1.17;0.70;;;3.30;97.60;;;;;;4765908;30;20063;-78
2020/12/29 04:51:25;;;;;;;0.90;0.50;;;3.20;98.10;;;;;;4766162;30;20059;-78
2020/12/29 04:53:58;;;;;;;3.63;0.73;;;3.20;98.10;;;;;;4766525;30;20091;-79
2020/12/29 04:56:34;;;;;;;4.57;0.60;;;3.20;97.80;;;;;;4766749;30;20056;-78
2020/12/29 04:59:05;;;;;;;1.13;0.57;;;3.30;97.80;;;;;;4766914;30;20489;-79
2020/12/29 05:01:36;;;;;;;0.70;0.52;;;3.30;98.00;;;;;;4765853;30;20079;-79
2020/12/29 05:04:07;;;;;;;1.17;0.40;;;3.30;97.90;;;;;;4766001;30;20044;-79
2020/12/29 05:06:40;;;;;;;1.95;0.50;;;3.20;97.90;;;;;;4780299;30;20508;-79
2020/12/29 05:09:11;;;;;;;1.17;0.50;;;3.30;98.00;;;;;;4765642;30;20070;-79
2020/12/29 05:11:42;;;;;;;0.93;0.45;;;3.30;98.10;;;;;;4766717;30;20058;-79
2020/12/29 05:14:14;;;;;;;2.05;0.50;;;3.40;97.90;;;;;;4755488;30;20608;-79
2020/12/29 05:16:41;;;;;;;0.90;0.68;;;3.50;97.80;;;;;;4784267;29;20055;-79
2020/12/29 05:19:14;;;;;;;2.15;0.43;;;3.50;98.20;;;;;;4784091;29;20138;-79
2020/12/29 05:21:42;;;;;;;1.80;0.50;;;3.50;98.00;;;;;;4769680;30;20123;-79
2020/12/29 05:24:14;;;;;;;1.13;0.50;;;3.50;97.90;;;;;;4769556;30;20054;-79
2020/12/29 05:26:51;;;;;;;1.75;0.40;;;3.50;98.40;;;;;;4769371;30;20142;-78
2020/12/29 05:29:24;;;;;;;1.50;0.50;;;3.50;98.30;;;;;;4769198;30;20044;-78
2020/12/29 05:31:56;;;;;;;2.55;0.30;;;3.60;98.10;;;;;;4769392;30;20040;-78
2020/12/29 05:34:28;;;;;;;1.45;0.80;;;3.50;98.20;;;;;;4784199;29;20052;-78
2020/12/29 05:37:00;;;;;;;0.93;0.40;;;3.60;98.20;;;;;;4769092;30;20052;-78
2020/12/29 05:39:31;;;;;;;0.85;0.52;;;3.50;98.20;;;;;;4769000;30;20453;-78
2020/12/29 05:42:03;;;;;;;1.27;0.40;;;3.50;98.20;;;;;;4769688;30;20055;-78
2020/12/29 05:44:35;;;;;;;1.52;0.50;;;3.50;98.20;;;;;;4769579;30;20048;-78
2020/12/29 05:47:06;;;;;;;1.85;0.60;;;3.50;98.20;;;;;;4769191;30;20549;-78
2020/12/29 05:49:38;;;;;;;1.17;0.40;;;3.40;98.20;;;;;;4769390;30;20135;-78
2020/12/29 05:52:11;;;;;;;2.58;0.55;;;3.40;98.30;;;;;;4769013;30;20054;-78
2020/12/29 05:54:43;;;;;;;2.58;0.50;;;3.40;98.40;;;;;;4769923;30;20350;-79
2020/12/29 05:57:16;;;;;;;2.38;0.73;;;3.40;98.50;;;;;;4783342;30;20047;-79
2020/12/29 05:59:49;;;;;;;3.33;0.60;;;3.30;98.40;;;;;;4769446;30;20047;-79
2020/12/29 06:02:20;;;;;;;1.08;0.50;;;3.40;98.10;;;;;;4768845;30;20044;-79
2020/12/29 06:04:53;;;;;;;1.23;0.50;;;3.40;98.50;;;;;;4768770;30;20054;-79
2020/12/29 06:07:26;;;;;;;1.02;0.40;;;3.40;98.10;;;;;;4768815;30;20518;-78
2020/12/29 06:09:59;;;;;;;2.60;0.47;;;3.40;98.40;;;;;;4768872;30;20130;-78
2020/12/29 06:12:32;;;;;;;2.05;0.40;;;3.40;98.50;;;;;;4768708;30;20051;-78
2020/12/29 06:15:03;;;;;;;2.08;0.55;;;3.40;98.20;;;;;;4769982;30;20058;-79
2020/12/29 06:17:43;;;;;;;1.17;0.70;;;3.40;98.10;;;;;;4769494;30;20062;-79
2020/12/29 06:20:16;;;;;;;2.63;0.77;;;3.50;98.00;;;;;;4768668;30;20112;-78
2020/12/29 06:22:50;;;;;;;1.02;0.38;;;3.60;97.40;;;;;;4768810;30;20048;-79
2020/12/29 06:25:23;;;;;;;1.60;0.50;;;3.70;97.20;;;;;;4754527;30;20150;-79
2020/12/29 06:27:59;;;;;;;3.95;0.50;;;3.70;97.40;;;;;;4768290;30;20058;-79
2020/12/29 06:30:33;;;;;;;2.08;0.57;;;3.80;97.10;;;;;;4769068;30;20268;-79
2020/12/29 06:33:07;;;;;;;3.20;0.60;;;3.80;97.20;;;;;;4768493;30;20142;-78
2020/12/29 06:35:33;;;;;;;2.35;0.50;;;3.80;96.90;;;;;;4768632;30;20079;-79
2020/12/29 06:38:22;;;;;;;1.23;0.50;;;3.80;97.30;;;;;;4782787;30;20043;-78
2020/12/29 06:40:59;;;;;;;1.88;0.60;;;3.90;96.90;;;;;;4781651;29;20048;-82
2020/12/29 06:43:32;;;;;;;0.70;0.40;;;3.90;97.00;;;;;;4771739;30;20047;-78
2020/12/29 06:46:14;;;;;;;1.58;0.40;;;4.00;96.50;;;;;;4766092;30;20504;-78
2020/12/29 06:48:45;;;;;;;0.77;0.30;;;4.00;97.00;;;;;;4753455;30;20052;-77
2020/12/29 06:51:17;;;;;;;0.52;0.38;;;4.10;96.10;;;;;;4767575;30;20050;-78
2020/12/29 06:53:48;;;;;;;1.40;0.50;;;4.10;96.00;;;;;;4768203;30;20048;-78
2020/12/29 06:56:19;;;;;;;3.38;0.55;;;4.00;96.20;;;;;;4767223;30;20047;-78
2020/12/29 06:58:52;;;;;;;3.00;0.55;;;4.10;96.00;;;;;;4750448;30;20054;-78
2020/12/29 07:01:24;;;;;;;0.40;0.33;;;4.00;96.60;;;;;;4764852;30;20055;-78
2020/12/29 07:04:06;;;;;;;1.50;0.40;;;4.00;97.00;;;;;;4750543;30;20060;-78
2020/12/29 07:06:37;;;;;;;1.30;0.40;;;3.90;97.20;;;;;;4764721;30;20880;-78
2020/12/29 07:09:26;;;;;;;2.17;0.50;;;3.80;97.50;;;;;;4764132;30;20052;-78
2020/12/29 07:12:02;;;;;;;2.15;0.47;;;3.80;97.50;;;;;;4764514;30;20412;-78
2020/12/29 07:14:35;;;;;;;1.95;0.50;;;3.90;97.70;;;;;;4750033;30;20057;-78
2020/12/29 07:17:07;;;;;;;3.90;0.60;;;3.80;97.90;;;;;;4766248;30;20067;-78
2020/12/29 07:19:40;;;;;;;3.75;0.52;;;3.80;98.20;;;;;;4766839;30;20080;-78
2020/12/29 07:22:16;;;;;;;1.77;0.43;;;3.80;98.20;;;;;;4752923;30;20050;-78
2020/12/29 07:24:49;;;;;;;1.77;0.63;;;4.00;98.10;;;;;;4767763;30;20062;-78
2020/12/29 07:27:20;;;;;;;1.83;0.68;;;4.00;98.20;;;;;;4767922;30;20751;-78
2020/12/29 07:30:01;;;;;;;3.13;0.70;;;4.00;98.20;;;;;;4768525;30;20060;-78
2020/12/29 07:32:32;;;;;;;1.85;1.73;;;4.00;98.30;;;;;;4780913;30;20066;-78
2020/12/29 07:35:04;;;;;;;2.40;0.50;;;4.00;98.50;;;;;;4784227;29;20058;-78
2020/12/29 07:37:36;;;;;;;0.60;0.40;;;3.90;98.40;;;;;;4779245;30;20047;-78
2020/12/29 07:40:08;;;;;;;1.90;0.55;;;3.90;98.50;;;;;;4766815;30;20056;-78
2020/12/29 07:42:39;;;;;;;0.93;0.43;;;3.90;98.80;;;;;;4781701;29;20048;-77
2020/12/29 07:45:10;;;;;;;2.60;0.77;;;3.90;98.90;;;;;;4779359;30;20407;-78
2020/12/29 07:47:41;;;;;;;0.35;0.30;;;3.80;99.00;;;;;;4776778;29;20142;-78
2020/12/29 07:50:13;;;;;;;0.70;0.40;;;3.90;99.00;;;;;;4774557;30;20512;-79
2020/12/29 07:52:44;;;;;;;1.00;0.40;;;3.90;99.00;;;;;;4767304;30;20053;-78
2020/12/29 07:55:18;;;;;;;1.33;0.82;;;3.90;99.00;;;;;;4767408;30;20052;-78
2020/12/29 07:57:49;;;;;;;1.83;0.68;;;3.90;98.90;;;;;;4767061;29;20050;-78
2020/12/29 08:00:20;;;;;;;5.43;0.60;;;3.80;99.70;;;;;;4771335;30;20054;-78
2020/12/29 08:02:53;;;;;;;3.30;0.57;;;3.80;99.40;;;;;;4767244;30;20138;-78
2020/12/29 08:05:24;;;;;;;1.45;0.50;;;3.80;99.50;;;;;;4766641;30;20054;-78
2020/12/29 08:07:59;;;;;;;1.52;0.40;;;3.80;99.50;;;;;;4766571;30;20052;-80
2020/12/29 08:10:35;;;;;;;1.15;0.75;;;3.80;99.90;;;;;;4751954;30;20075;-79
2020/12/29 08:13:12;;;;;;;2.75;1.02;;;3.80;99.70;;;;;;4767182;30;20138;-79
2020/12/29 08:15:43;;;;;;;1.75;0.80;;;3.70;99.90;;;;;;4783309;29;20492;-78
2020/12/29 08:18:21;;;;;;;1.90;0.50;;;3.80;99.90;;;;;;4766371;29;20054;-78
2020/12/29 08:20:57;;;;;;;2.90;0.63;;;3.70;99.90;;;;;;4765875;30;20102;-77
2020/12/29 08:23:29;;;;;;;3.63;1.33;;;3.80;99.70;;;;;;4766570;29;20048;-78
2020/12/29 08:26:02;;;;;;;2.03;0.50;;;3.90;99.40;;;;;;4765699;29;20047;-79
2020/12/29 08:28:30;;;;;;;0.98;0.50;;;4.00;99.30;;;;;;4765615;30;20130;-78
2020/12/29 08:31:02;;;;;;;2.17;0.65;;;4.10;98.60;;;;;;4766026;30;20051;-78
2020/12/29 08:33:35;;;;;;;0.70;0.50;;;4.10;98.60;;;;;;4780700;30;20504;-78
2020/12/29 08:36:10;;;;;;;1.63;0.68;;;4.00;98.80;;;;;;4766908;30;20047;-78
2020/12/29 08:38:39;;;;;;;1.58;0.47;;;4.10;98.70;;;;;;4765650;30;20512;-78
2020/12/29 08:41:05;;;;;;;1.15;0.40;;;4.00;99.20;;;;;;4765437;30;20341;-78
2020/12/29 08:43:48;;;;;;;2.97;0.95;;;4.00;98.80;;;;;;4779516;30;20134;-78
2020/12/29 08:46:21;;;;;;;3.45;0.90;;;4.00;98.80;;;;;;4764376;30;20139;-78
2020/12/29 08:49:05;;;;;;;1.75;0.98;;;4.10;98.40;;;;;;4766125;30;20077;-78
2020/12/29 08:51:42;;;;;;;3.63;0.93;;;4.10;99.00;;;;;;4768457;30;20055;-78
2020/12/29 08:54:18;;;;;;;3.92;0.82;;;4.10;98.80;;;;;;4782505;30;20308;-78
2020/12/29 08:56:58;;;;;;;0.75;0.47;;;4.10;99.30;;;;;;4783475;29;20051;-78
2020/12/29 08:59:39;;;;;;;1.85;0.98;;;4.00;99.40;;;;;;4782585;30;20496;-78
2020/12/29 09:02:11;;;;;;;4.80;0.88;;;4.10;99.30;;;;;;4768946;30;20142;-78
2020/12/29 09:04:43;;;;;;;1.35;0.75;;;4.10;99.70;;;;;;4783519;30;20047;-78
2020/12/29 09:07:15;;;;;;;1.42;0.60;;;4.10;99.40;;;;;;4769557;30;20079;-78
2020/12/29 09:09:52;;;;;;;6.50;3.13;;;4.10;99.50;;;;;;4783732;29;20142;-78
2020/12/29 09:12:28;;;;;;;4.10;1.17;;;4.10;99.70;;;;;;4783741;30;20114;-78
2020/12/29 09:15:07;;;;;;;2.50;0.82;;;4.20;99.20;;;;;;4775311;30;20083;-78
2020/12/29 09:17:42;;;;;;;12.55;5.72;;;4.20;99.30;;;;;;4779982;29;20048;-78
2020/12/29 09:20:21;;;;;;;4.43;1.02;;;4.20;99.30;;;;;;4765285;29;20048;-78
2020/12/29 09:23:11;;;;;;;2.47;1.08;;;4.30;98.80;;;;;;4764739;30;20058;-78
2020/12/29 09:25:44;;;;;;;5.70;1.20;;;4.30;99.30;;;;;;4779524;30;20050;-78
2020/12/29 09:28:25;;;;;;;2.08;0.82;;;4.30;99.00;;;;;;4760520;30;20051;-79
2020/12/29 09:31:01;;;;;;;4.95;0.82;;;4.30;99.40;;;;;;4788574;29;20059;-78
2020/12/29 09:33:34;;;;;;;0.88;0.65;;;4.40;98.90;;;;;;4768912;30;20518;-78
2020/12/29 09:36:17;;;;;;;1.13;0.40;;;4.50;98.80;;;;;;4783370;29;20067;-79
2020/12/29 09:38:49;;;;;;;2.35;0.60;;;4.50;98.20;;;;;;4782454;30;20108;-78
2020/12/29 09:41:21;;;;;;;3.90;0.75;;;4.60;98.40;;;;;;4768017;30;20051;-78
2020/12/29 09:43:48;;;;;;;1.60;0.75;;;4.70;98.00;;;;;;4783627;30;20499;-78
2020/12/29 09:46:19;;;;;;;1.50;0.70;;;4.80;98.00;;;;;;4782496;30;20050;-78
2020/12/29 09:48:50;;;;;;;1.38;0.88;;;4.80;98.00;;;;;;4767777;30;20047;-78
2020/12/29 09:51:21;;;;;;;2.15;0.50;;;4.80;97.80;;;;;;4768033;30;20054;-78
2020/12/29 09:53:52;;;;;;;2.58;0.60;;;4.80;98.00;;;;;;4782381;30;20414;-77
2020/12/29 09:56:24;;;;;;;1.58;0.65;;;4.90;97.40;;;;;;4783376;29;20142;-78
2020/12/29 09:58:55;;;;;;;1.23;0.60;;;4.90;97.10;;;;;;4784980;29;20047;-78
2020/12/29 10:01:26;;;;;;;0.82;0.50;;;5.00;97.50;;;;;;4785922;30;20048;-77
2020/12/29 10:03:52;;;;;;;1.92;0.68;;;5.00;96.90;;;;;;4770846;30;20057;-78
2020/12/29 10:06:23;;;;;;;1.70;1.33;;;5.00;96.10;;;;;;4770843;30;20138;-78
2020/12/29 10:08:55;;;;;;;1.38;0.50;;;5.00;95.90;;;;;;4783591;29;20062;-78
2020/12/29 10:11:27;;;;;;;3.17;0.50;;;5.10;95.00;;;;;;4760406;30;20062;-78
2020/12/29 10:13:58;;;;;;;0.45;0.35;;;5.10;95.00;;;;;;4768610;30;20052;-79
2020/12/29 10:16:33;;;;;;;2.13;0.68;;;5.10;94.90;;;;;;4770073;30;20058;-78
2020/12/29 10:19:04;;;;;;;2.92;0.70;;;5.00;95.00;;;;;;4766913;30;20050;-78
2020/12/29 10:21:31;;;;;;;6.20;0.98;;;5.10;94.90;;;;;;4767230;30;20056;-78
2020/12/29 10:24:02;;;;;;;1.40;0.50;;;5.00;94.80;;;;;;4767121;30;20052;-77
2020/12/29 10:26:33;;;;;;;2.10;0.57;;;5.00;94.80;;;;;;4767032;30;20063;-78
2020/12/29 10:29:04;;;;;;;2.67;0.50;;;5.10;94.30;;;;;;4766821;30;20047;-78
2020/12/29 10:31:36;;;;;;;1.40;0.77;;;5.10;95.20;;;;;;4767117;30;20048;-78
2020/12/29 10:34:10;;;;;;;3.30;0.50;;;5.00;95.10;;;;;;4768296;30;20058;-78
2020/12/29 10:36:37;;;;;;;2.53;1.25;;;5.10;95.20;;;;;;4768898;30;20544;-78
2020/12/29 10:39:09;;;;;;;2.55;0.55;;;5.10;95.10;;;;;;4767770;30;20052;-78
2020/12/29 10:41:41;;;;;;;1.63;0.50;;;5.00;94.70;;;;;;4767891;30;20051;-79
2020/12/29 10:44:12;;;;;;;1.40;0.40;;;5.00;95.30;;;;;;4782661;29;20048;-78
2020/12/29 10:46:47;;;;;;;2.38;0.80;;;5.00;94.70;;;;;;4781609;30;20520;-77
2020/12/29 10:49:19;;;;;;;3.30;0.77;;;5.00;94.70;;;;;;4766779;30;20597;-78
2020/12/29 10:51:50;;;;;;;3.05;0.40;;;4.90;95.70;;;;;;4767196;30;20114;-79
2020/12/29 10:54:21;;;;;;;1.13;0.57;;;5.00;95.60;;;;;;4782750;29;20504;-79
2020/12/29 10:56:52;;;;;;;2.30;0.50;;;5.00;95.70;;;;;;4768240;30;20135;-79
2020/12/29 10:59:24;;;;;;;3.28;0.60;;;5.00;94.90;;;;;;4766880;30;20071;-79
2020/12/29 11:01:55;;;;;;;2.17;0.60;;;5.00;94.70;;;;;;4764666;30;20082;-78
2020/12/29 11:04:25;;;;;;;3.28;0.65;;;5.10;94.50;;;;;;4750877;30;20118;-78
2020/12/29 11:06:52;;;;;;;3.72;0.80;;;5.30;95.00;;;;;;4749852;30;20044;-79
2020/12/29 11:09:23;;;;;;;2.15;0.40;;;5.40;94.80;;;;;;4762381;30;20568;-80
2020/12/29 11:11:54;;;;;;;1.33;0.55;;;5.50;94.50;;;;;;4749701;30;20098;-79
2020/12/29 11:14:25;;;;;;;4.95;0.95;;;5.60;94.20;;;;;;4777287;30;20504;-79
2020/12/29 11:16:56;;;;;;;0.88;0.57;;;5.70;94.60;;;;;;4749622;30;20056;-79
2020/12/29 11:19:23;;;;;;;2.45;0.70;;;5.70;93.90;;;;;;4749297;30;20062;-79
2020/12/29 11:21:54;;;;;;;0.82;0.75;;;5.70;94.10;;;;;;4756775;30;20139;-81
2020/12/29 13:55:16;;;;;;;2.55;1.00;;;5.60;85.90;;;;;;5165443;24;20440;-80
2020/12/29 15:24:04;;;;;;;3.25;2.63;;;3.70;92.70;;;;;;4786323;30;20059;-79
2020/12/29 15:26:31;;;;;;;2.63;0.90;;;3.60;93.00;;;;;;4773244;29;20056;-80
2020/12/29 15:29:03;;;;;;;1.48;0.63;;;3.50;93.30;;;;;;4759976;30;20059;-79
2020/12/29 15:31:35;;;;;;;1.50;0.95;;;3.50;93.00;;;;;;4757940;30;20059;-79
2020/12/29 15:34:01;;;;;;;2.25;1.42;;;3.50;92.90;;;;;;4772711;29;20139;-79
2020/12/29 15:36:33;;;;;;;1.25;0.80;;;3.50;93.10;;;;;;4759572;30;20047;-79
2020/12/29 15:39:05;;;;;;;2.25;1.00;;;3.50;93.20;;;;;;4759803;30;20138;-79
2020/12/29 15:41:36;;;;;;;3.22;1.63;;;3.50;93.10;;;;;;4772835;30;20131;-79
2020/12/29 15:44:08;;;;;;;5.35;3.85;;;3.50;93.30;;;;;;4774088;30;20491;-79
2020/12/29 15:46:47;;;;;;;4.05;1.90;;;3.50;93.60;;;;;;4759563;30;20052;-79
2020/12/29 15:49:19;;;;;;;2.92;1.02;;;3.30;94.10;;;;;;4760046;30;20066;-79
2020/12/29 15:51:53;;;;;;;2.67;1.23;;;3.20;95.20;;;;;;4756552;30;20138;-79
2020/12/29 15:54:20;;;;;;;2.72;1.15;;;3.10;96.10;;;;;;4769421;29;20138;-79
2020/12/29 15:56:52;;;;;;;1.25;1.02;;;3.00;96.40;;;;;;4767805;30;20044;-79
2020/12/29 15:59:19;;;;;;;4.03;2.58;;;2.80;97.20;;;;;;4768161;30;20147;-80
2020/12/29 16:01:46;;;;;;;2.08;0.98;;;2.60;98.00;;;;;;4767728;29;20083;-79
2020/12/29 16:04:31;;;;;;;3.65;2.00;;;2.40;99.00;;;;;;4770908;30;20107;-79
2020/12/29 16:07:02;;;;;;;5.53;2.88;;;2.30;98.90;;;;;;4769641;30;20519;-79
2020/12/29 16:09:29;;;;;;;3.45;2.08;;;2.20;99.90;;;;;;4775268;29;20055;-79
2020/12/29 16:15:16;;;;;;;2.47;1.10;;;1.90;99.90;;;;;;4776762;30;20052;-79
2020/12/29 16:17:43;;;;;;;3.67;1.52;;;1.70;99.90;;;;;;4756677;30;20048;-79
2020/12/29 16:20:16;;;;;;;3.38;1.30;;;1.70;99.90;;;;;;4742656;30;20056;-79
2020/12/29 16:22:48;;;;;;;2.85;1.40;;;1.60;99.90;;;;;;4768380;30;20052;-79
2020/12/29 16:25:19;;;;;;;4.88;2.40;;;1.60;99.90;;;;;;4725222;30;20119;-80
2020/12/29 16:27:46;;;;;;;4.60;1.98;;;1.70;99.90;;;;;;4768132;29;20055;-79
2020/12/29 16:30:18;;;;;;;8.45;3.70;;;1.80;99.90;;;;;;4740687;30;20085;-80
2020/12/29 16:32:50;;;;;;;4.00;1.88;;;1.90;99.90;;;;;;4781687;29;20134;-79
2020/12/29 16:35:17;;;;;;;4.80;2.65;;;1.90;99.90;;;;;;4772818;30;20393;-79
2020/12/29 16:37:45;;;;;;;4.28;2.83;;;1.80;99.90;;;;;;4762648;30;20120;-78
2020/12/29 16:40:15;;;;;;;6.03;3.70;;;1.70;99.90;;;;;;4788795;29;20047;-79
2020/12/29 16:42:42;;;;;;;6.45;3.70;;;1.60;99.90;;;;;;4772500;30;20182;-79
2020/12/29 16:45:09;;;;;;;10.00;3.92;;;1.60;99.90;;;;;;4755328;30;20051;-79
2020/12/29 16:47:37;;;;;;;6.60;4.07;;;1.60;99.90;;;;;;4769447;30;20075;-79
2020/12/29 16:50:09;;;;;;;7.63;4.75;;;1.50;99.90;;;;;;4755123;30;20123;-79
2020/12/29 16:52:40;;;;;;;6.75;2.95;;;1.40;99.90;;;;;;4769910;29;20139;-78
2020/12/29 16:55:07;;;;;;;5.00;2.92;;;1.20;99.90;;;;;;4769688;30;20056;-79
2020/12/29 16:57:36;;;;;;;8.90;3.53;;;1.20;99.90;;;;;;4770122;30;20503;-78
2020/12/29 17:00:06;;;;;;;6.57;2.90;;;1.20;99.90;;;;;;4755238;30;20119;-79
2020/12/29 17:02:33;;;;;;;8.82;5.18;;;1.10;99.90;;;;;;4770294;30;20049;-79
2020/12/29 17:05:02;;;;;;;8.10;4.20;;;1.00;99.90;;;;;;4754735;30;20060;-80
2020/12/29 17:07:34;;;;;;;16.25;8.50;;;0.90;99.90;;;;;;4740010;30;20045;-79
2020/12/29 17:10:05;;;;;;;16.15;8.10;;;0.90;99.90;;;;;;4740873;30;20052;-79
2020/12/29 17:12:37;;;;;;;10.80;5.32;;;0.80;99.90;;;;;;4768457;30;20052;-79
2020/12/29 17:15:04;;;;;;;6.90;4.10;;;0.70;99.90;;;;;;4785528;29;20091;-79
2020/12/29 17:17:31;;;;;;;9.93;4.20;;;0.70;99.90;;;;;;4754983;30;20068;-79
2020/12/29 17:19:58;;;;;;;10.20;4.38;;;0.80;99.90;;;;;;4781800;30;20102;-79
2020/12/29 17:22:29;;;;;;;7.55;3.95;;;0.70;99.90;;;;;;4752496;30;20493;-80